Time;durP1;ratioP1;P1;durP2;ratioP2;P2;SDS_P1;SDS_P2;PMS_P1;PMS_P2;Temp;Humidity;BMP_temperature;BMP_pressure;BME280_temperature;BME280_humidity;BME280_pressure;Samples;Min_cycle;Max_cycle;Signal;HPM_P1;HPM_P2
2023/10/01 00:01:53;;;;;;;19.30;13.80;;;;;;;19.11;45.84;99773.75;106055;1255;74030;-77
2023/10/01 00:04:21;;;;;;;16.20;13.30;;;;;;;19.09;45.86;99776.36;106410;1255;68924;-77
2023/10/01 00:06:48;;;;;;;16.10;13.20;;;;;;;19.09;45.96;99772.61;106329;1254;71158;-80
2023/10/01 00:09:19;;;;;;;18.60;13.00;;;;;;;19.07;46.13;99776.39;106288;1256;60367;-80
2023/10/01 00:11:47;;;;;;;17.30;12.60;;;;;;;19.02;46.07;99771.96;106356;1254;60609;-80
2023/10/01 00:14:16;;;;;;;20.50;13.80;;;;;;;18.99;46.12;99777.35;106140;1258;73842;-80
2023/10/01 00:16:54;;;;;;;15.70;14.00;;;;;;;18.94;46.40;99774.70;106605;1254;68785;-79
2023/10/01 00:19:22;;;;;;;17.40;14.00;;;;;;;18.89;46.47;99777.20;106154;1254;70077;-81
2023/10/01 00:21:49;;;;;;;15.40;13.20;;;;;;;18.84;46.51;99773.79;106446;1253;60517;-79
2023/10/01 00:24:17;;;;;;;24.40;14.00;;;;;;;18.79;46.60;99772.13;106357;1254;60492;-80
2023/10/01 00:26:45;;;;;;;19.70;14.60;;;;;;;18.75;46.75;99774.46;107443;1254;74724;-80
2023/10/01 00:29:13;;;;;;;17.20;13.40;;;;;;;18.72;46.84;99774.21;109368;1254;68828;-81
2023/10/01 00:31:41;;;;;;;17.00;14.00;;;;;;;18.70;47.00;99776.84;109135;1254;71375;-81
2023/10/01 00:34:09;;;;;;;26.10;14.40;;;;;;;18.66;47.09;99774.84;108884;1252;60537;-82
2023/10/01 00:36:37;;;;;;;18.90;14.50;;;;;;;18.62;47.22;99772.67;107723;1260;60431;-81
2023/10/01 00:39:06;;;;;;;21.00;13.90;;;;;;;18.58;47.29;99770.02;107667;1254;73937;-83
2023/10/01 00:41:33;;;;;;;20.60;15.30;;;;;;;18.54;47.53;99773.58;105863;1259;72628;-81
2023/10/01 00:44:03;;;;;;;19.80;14.10;;;;;;;18.48;47.66;99771.23;106276;1257;72479;-82
2023/10/01 00:46:31;;;;;;;20.40;15.30;;;;;;;18.41;47.71;99765.96;106138;1253;242390;-82
2023/10/01 00:50:40;;;;;;;22.00;15.10;;;;;;;18.36;47.97;99768.95;102955;1295;600320;-83
2023/10/01 00:53:10;;;;;;;24.00;15.80;;;;;;;18.28;48.23;99765.20;105387;1270;60200;-81
2023/10/01 00:55:39;;;;;;;25.30;15.80;;;;;;;18.23;48.43;99769.21;105414;1272;60002;-81
2023/10/01 00:58:10;;;;;;;22.50;15.80;;;;;;;18.16;48.61;99766.56;105666;1282;71037;-81
2023/10/01 01:00:37;;;;;;;25.70;15.60;;;;;;;18.09;48.76;99763.64;106418;1266;70185;-82
2023/10/01 01:05:56;;;;;;;17.60;13.80;;;;;;;17.95;49.16;99757.57;108275;1263;58495;-82
2023/10/01 01:08:46;;;;;;;20.50;15.50;;;;;;;17.88;49.42;99766.20;107986;1263;59204;-79
2023/10/01 01:11:17;;;;;;;21.90;15.40;;;;;;;17.80;49.59;99765.67;105672;1263;71781;-77
2023/10/01 01:13:45;;;;;;;22.30;15.90;;;;;;;17.73;49.73;99758.36;105833;1260;70150;-80
2023/10/01 01:16:13;;;;;;;23.30;16.20;;;;;;;17.67;49.95;99754.09;105548;1263;71464;-80
2023/10/01 01:18:45;;;;;;;18.60;15.20;;;;;;;17.60;50.03;99755.36;105509;1258;60177;-81
2023/10/01 01:21:14;;;;;;;20.20;15.20;;;;;;;17.54;50.17;99754.80;105629;1257;59823;-82
2023/10/01 01:23:42;;;;;;;23.10;15.70;;;;;;;17.46;50.42;99752.48;105678;1257;71812;-80
2023/10/01 01:26:13;;;;;;;25.80;16.30;;;;;;;17.39;50.74;99753.10;105453;1263;70088;-80
2023/10/01 01:28:41;;;;;;;23.20;16.40;;;;;;;17.31;51.01;99758.86;105635;1260;72621;-78
2023/10/01 01:31:10;;;;;;;22.10;16.60;;;;;;;17.23;51.26;99755.95;105554;1263;59832;-80
2023/10/01 01:33:44;;;;;;;18.30;15.80;;;;;;;17.17;51.31;99751.51;105665;1260;60424;-79
2023/10/01 01:36:17;;;;;;;21.30;15.40;;;;;;;17.10;51.53;99750.41;105637;1257;71711;-81
2023/10/01 01:39:09;;;;;;;19.90;16.20;;;;;;;17.04;51.88;99748.98;105554;1264;68841;-80
2023/10/01 01:41:47;;;;;;;23.00;16.50;;;;;;;16.95;52.27;99749.09;105827;1257;71788;-79
2023/10/01 01:44:16;;;;;;;21.70;16.70;;;;;;;16.87;52.54;99750.76;105765;1262;59813;-79
2023/10/01 01:46:59;;;;;;;21.00;15.70;;;;;;;16.79;52.70;99743.35;106567;1262;60112;-80
2023/10/01 01:49:28;;;;;;;21.60;14.70;;;;;;;16.73;52.84;99741.45;105706;1263;72133;-79
2023/10/01 01:52:03;;;;;;;25.30;16.80;;;;;;;16.70;53.01;99741.37;105615;1257;68438;-79
2023/10/01 01:54:39;;;;;;;23.30;16.30;;;;;;;16.66;53.11;99741.29;105478;1261;72499;-79
2023/10/01 01:57:14;;;;;;;23.10;16.70;;;;;;;16.63;53.08;99742.45;105528;1262;59615;-77
2023/10/01 01:59:42;;;;;;;21.50;16.50;;;;;;;16.59;53.43;99740.30;105527;1270;59683;-77
2023/10/01 02:02:10;;;;;;;23.20;16.30;;;;;;;16.54;53.45;99740.48;105767;1263;73460;-77
2023/10/01 02:07:24;;;;;;;22.30;16.70;;;;;;;16.48;53.53;99737.72;108211;1263;71746;-78
2023/10/01 02:09:51;;;;;;;24.70;17.50;;;;;;;16.47;53.60;99742.55;107693;1258;59157;-79
2023/10/01 02:12:25;;;;;;;22.80;16.90;;;;;;;16.46;53.73;99745.48;106520;1263;59634;-78
2023/10/01 02:14:56;;;;;;;;;;;;;;;16.44;53.78;99749.42;105747;1263;71840;-82
2023/10/01 02:17:25;;;;;;;25.50;17.70;;;;;;;16.41;54.03;99747.45;105962;1263;69744;-83
2023/10/01 02:19:55;;;;;;;23.10;18.00;;;;;;;16.34;54.04;99744.95;105890;1262;71916;-83
2023/10/01 02:22:24;;;;;;;24.40;17.30;;;;;;;16.30;54.16;99747.58;105574;1262;60130;-82
2023/10/01 02:24:54;;;;;;;29.80;18.00;;;;;;;16.25;54.38;99759.90;108042;1263;59170;-80
2023/10/01 02:27:28;;;;;;;23.60;17.90;;;;;;;16.19;54.50;99750.73;106088;1263;71800;-79
2023/10/01 02:30:13;;;;;;;29.20;19.10;;;;;;;16.12;54.75;99749.24;105938;1257;69119;-79
2023/10/01 02:33:15;;;;;;;24.70;17.80;;;;;;;16.07;55.12;99752.41;105789;1254;70538;-82
2023/10/01 02:35:40;;;;;;;24.40;18.90;;;;;;;15.99;55.33;99748.65;105875;1259;59878;-80
2023/10/01 02:40:57;;;;;;;23.60;19.00;;;;;;;15.86;55.68;99744.45;105683;1260;71926;-83
2023/10/01 02:43:26;;;;;;;27.40;18.50;;;;;;;15.80;56.21;99746.95;106068;1257;68111;-82
2023/10/01 02:45:54;;;;;;;23.10;18.20;;;;;;;15.72;56.43;99741.52;106027;1260;72753;-81
2023/10/01 02:48:22;;;;;;;32.00;19.80;;;;;;;15.66;56.40;99741.23;105857;1259;59637;-80
2023/10/01 02:50:52;;;;;;;23.80;18.90;;;;;;;15.62;56.90;99748.92;105912;1254;60973;-82
2023/10/01 02:53:20;;;;;;;25.70;19.30;;;;;;;15.55;57.13;99748.83;107154;1254;71944;-82
2023/10/01 02:55:51;;;;;;;25.40;18.90;;;;;;;15.49;57.28;99740.42;108961;1254;69262;-83
2023/10/01 02:58:27;;;;;;;24.20;18.80;;;;;;;15.43;57.48;99740.91;108552;1253;71538;-83
2023/10/01 03:00:56;;;;;;;25.30;17.90;;;;;;;15.41;57.42;99743.94;108156;1254;59804;-82
2023/10/01 03:03:33;;;;;;;26.60;19.40;;;;;;;15.39;57.79;99740.65;108947;1259;58949;-84
2023/10/01 03:06:10;;;;;;;29.10;18.90;;;;;;;15.34;57.93;99742.31;107341;1254;71837;-85
2023/10/01 03:09:00;;;;;;;24.80;17.70;;;;;;;15.29;58.33;99746.81;107183;1259;68622;-83
2023/10/01 03:11:40;;;;;;;27.00;18.90;;;;;;;15.22;58.47;99749.26;107554;1254;71204;-82
2023/10/01 03:14:20;;;;;;;30.20;19.90;;;;;;;15.15;58.78;99747.23;109181;1254;59109;-83
2023/10/01 03:16:53;;;;;;;28.00;19.40;;;;;;;15.09;59.09;99741.61;108914;1253;59183;-83
2023/10/01 03:19:25;;;;;;;27.10;19.00;;;;;;;15.05;59.30;99743.69;106744;1254;73069;-84
2023/10/01 03:24:39;;;;;;;26.50;18.30;;;;;;;14.92;60.13;99742.59;106563;1256;71400;-80
2023/10/01 03:27:20;;;;;;;23.40;19.80;;;;;;;14.84;60.57;99741.17;105804;1258;60120;-82
2023/10/01 03:30:00;;;;;;;29.20;20.10;;;;;;;14.77;60.84;99738.95;105718;1259;60277;-81
2023/10/01 03:32:29;;;;;;;25.00;19.60;;;;;;;14.68;61.26;99739.14;105928;1254;73398;-83
2023/10/01 03:35:04;;;;;;;27.10;18.90;;;;;;;14.60;61.62;99743.56;105853;1259;70169;-81
2023/10/01 03:37:38;;;;;;;30.80;20.50;;;;;;;14.51;62.15;99741.98;105872;1253;72659;-81
2023/10/01 03:40:18;;;;;;;24.20;19.80;;;;;;;14.44;62.40;99743.94;106650;1254;59593;-80
2023/10/01 03:42:51;;;;;;;26.60;20.10;;;;;;;14.39;63.02;99745.12;107583;1254;58802;-82
2023/10/01 03:45:37;;;;;;;28.10;19.70;;;;;;;14.34;63.42;99747.98;105787;1254;71814;-83
2023/10/01 03:48:07;;;;;;;26.50;20.80;;;;;;;14.31;63.51;99750.03;105710;1256;70442;-81
2023/10/01 03:50:45;;;;;;;23.20;19.60;;;;;;;14.29;63.91;99760.42;105980;1257;71453;-82
2023/10/01 03:53:17;;;;;;;22.80;19.00;;;;;;;14.25;64.43;99763.39;105850;1261;60197;-82
2023/10/01 03:55:46;;;;;;;29.00;19.20;;;;;;;14.20;64.83;99765.88;107097;1254;59590;-82
2023/10/01 03:58:26;;;;;;;21.80;18.60;;;;;;;14.14;65.40;99766.73;106899;1258;73106;-86
2023/10/01 04:00:54;;;;;;;23.10;19.20;;;;;;;14.09;65.85;99770.52;106094;1260;70651;-87
2023/10/01 04:03:22;;;;;;;27.10;19.40;;;;;;;14.07;66.33;99777.27;106348;1254;72390;-86
2023/10/01 04:05:56;;;;;;;22.90;19.30;;;;;;;14.09;66.48;99784.85;106016;1254;61681;-84
2023/10/01 04:08:25;;;;;;;28.00;20.20;;;;;;;14.10;67.11;99789.14;106347;1254;60219;-83
2023/10/01 04:10:58;;;;;;;24.80;19.40;;;;;;;14.04;67.10;99791.73;106937;1254;73009;-83
2023/10/01 04:13:27;;;;;;;28.10;20.00;;;;;;;13.97;67.76;99792.20;106346;1253;68984;-82
2023/10/01 04:15:56;;;;;;;25.50;19.70;;;;;;;13.91;68.18;99793.64;106659;1254;73068;-84
2023/10/01 04:18:28;;;;;;;24.00;19.00;;;;;;;13.87;68.82;99800.34;108413;1255;59619;-79
2023/10/01 04:23:30;;;;;;;22.00;16.80;;;;;;;13.82;70.26;99804.56;106221;1254;71803;-78
2023/10/01 04:26:06;;;;;;;25.00;18.70;;;;;;;13.87;70.42;99807.79;105941;1254;70323;-79
2023/10/01 04:28:44;;;;;;;23.70;19.30;;;;;;;13.93;70.44;99811.02;106011;1255;72065;-79
2023/10/01 04:31:15;;;;;;;24.50;18.40;;;;;;;13.93;70.79;99806.77;106601;1253;59729;-77
2023/10/01 04:33:45;;;;;;;22.80;17.80;;;;;;;13.94;71.15;99809.38;109445;1257;58808;-77
2023/10/01 04:36:16;;;;;;;21.00;18.50;;;;;;;13.97;71.89;99811.05;109356;1253;72060;-77
2023/10/01 04:38:45;;;;;;;20.10;15.80;;;;;;;13.99;72.30;99806.80;108097;1254;68880;-77
2023/10/01 04:41:13;;;;;;;18.40;16.40;;;;;;;14.09;72.50;99810.33;106279;1254;72682;-78
2023/10/01 04:43:51;;;;;;;19.70;17.00;;;;;;;14.23;72.71;99813.09;106246;1254;59666;-77
2023/10/01 04:46:24;;;;;;;21.00;15.80;;;;;;;14.28;72.62;99813.60;105810;1254;60556;-76
2023/10/01 04:48:52;;;;;;;21.60;17.10;;;;;;;14.33;73.09;99812.70;106001;1259;72979;-78
2023/10/01 04:51:21;;;;;;;22.20;17.10;;;;;;;14.37;73.15;99815.38;105962;1254;70604;-76
2023/10/01 04:53:49;;;;;;;25.70;18.40;;;;;;;14.44;73.65;99815.77;106080;1254;72502;-77
2023/10/01 04:56:25;;;;;;;21.20;16.30;;;;;;;14.56;73.74;99822.35;105944;1254;60432;-79
2023/10/01 04:58:54;;;;;;;20.50;16.40;;;;;;;14.73;73.82;99821.66;106116;1256;60307;-78
2023/10/01 05:01:27;;;;;;;22.60;17.30;;;;;;;14.83;73.79;99822.17;105988;1259;73127;-77
2023/10/01 05:03:56;;;;;;;20.00;16.10;;;;;;;14.88;73.77;99822.06;105658;1254;70859;-77
2023/10/01 05:06:27;;;;;;;24.00;17.30;;;;;;;14.93;74.01;99820.67;106222;1254;72499;-77
2023/10/01 05:08:56;;;;;;;19.90;17.70;;;;;;;14.99;74.18;99823.13;105782;1254;60556;-78
2023/10/01 05:11:31;;;;;;;21.10;17.20;;;;;;;15.07;74.38;99820.78;105881;1258;60446;-76
2023/10/01 05:13:59;;;;;;;20.60;16.60;;;;;;;15.22;74.49;99822.77;105716;1258;73848;-77
2023/10/01 05:16:26;;;;;;;18.10;15.50;;;;;;;15.36;74.14;99818.66;105630;1260;69505;-78
2023/10/01 05:19:10;;;;;;;19.20;16.70;;;;;;;15.42;74.32;99821.91;106384;1254;71873;-77
2023/10/01 05:21:46;;;;;;;24.10;17.60;;;;;;;15.49;74.35;99821.82;106459;1254;60422;-77
2023/10/01 05:24:48;;;;;;;20.80;14.50;;;;;;;15.55;74.39;99822.26;108199;1254;60424;-76
2023/10/01 05:27:18;;;;;;;19.80;14.20;;;;;;;15.66;74.90;99826.93;108319;1254;72822;-79
2023/10/01 05:29:46;;;;;;;19.50;14.30;;;;;;;15.81;75.10;99833.45;106606;1258;69102;-79
2023/10/01 05:32:13;;;;;;;17.20;14.70;;;;;;;15.89;74.80;99831.72;106139;1254;71398;-81
2023/10/01 05:34:45;;;;;;;19.80;15.30;;;;;;;15.98;74.96;99835.50;105982;1259;60546;-79
2023/10/01 05:37:24;;;;;;;18.20;16.20;;;;;;;16.05;74.82;99837.79;106293;1257;60409;-79
2023/10/01 05:39:56;;;;;;;19.30;15.40;;;;;;;16.14;75.09;99850.55;105918;1257;73993;-80
2023/10/01 05:42:26;;;;;;;;;;;;;;;16.20;75.09;99852.41;105818;1254;68740;-79
2023/10/01 05:44:59;;;;;;;16.30;13.90;;;;;;;16.34;74.91;99852.21;105886;1258;72769;-79
2023/10/01 05:47:41;;;;;;;15.40;13.80;;;;;;;16.46;74.98;99855.44;105836;1254;60481;-81
2023/10/01 05:50:12;;;;;;;16.80;15.00;;;;;;;16.49;75.03;99859.48;105814;1257;62673;-79
2023/10/01 05:52:40;;;;;;;16.90;14.30;;;;;;;16.48;75.14;99860.48;105786;1258;73872;-77
2023/10/01 05:55:19;;;;;;;17.50;15.20;;;;;;;16.48;75.50;99863.78;105737;1254;70041;-79
2023/10/01 05:57:50;;;;;;;18.40;14.20;;;;;;;16.45;75.78;99864.81;105916;1257;71584;-79
2023/10/01 06:00:18;;;;;;;16.70;14.00;;;;;;;16.53;75.85;99868.98;105815;1260;63645;-80
2023/10/01 06:02:47;;;;;;;18.30;14.80;;;;;;;16.61;75.89;99873.13;105982;1254;60462;-81
2023/10/01 06:05:42;;;;;;;17.70;15.70;;;;;;;16.61;76.25;99878.45;105895;1254;72643;-82
2023/10/01 06:08:15;;;;;;;19.10;17.10;;;;;;;16.56;76.57;99877.16;105974;1260;70101;-82
2023/10/01 06:11:03;;;;;;;20.80;17.20;;;;;;;16.55;76.54;99874.60;106336;1253;71609;-84
2023/10/01 06:13:37;;;;;;;19.70;15.60;;;;;;;16.61;76.91;99878.86;106713;1254;61712;-84
2023/10/01 06:16:16;;;;;;;17.90;15.20;;;;;;;16.75;76.69;99874.79;105940;1258;60422;-84
2023/10/01 06:18:49;;;;;;;19.40;16.40;;;;;;;16.84;76.66;99878.63;105835;1254;72632;-81
2023/10/01 06:21:24;;;;;;;19.10;16.40;;;;;;;16.86;76.67;99879.59;106072;1254;70144;-84
2023/10/01 06:23:53;;;;;;;18.00;16.00;;;;;;;16.87;76.84;99877.46;106160;1258;72726;-82
2023/10/01 16:08:36;;;;;;;7.80;3.20;;;;;;;15.88;59.59;99949.91;104192;1289;599651;-83
2023/10/01 16:11:05;;;;;;;7.10;3.60;;;;;;;15.91;59.53;99949.05;107233;1260;58867;-84
2023/10/01 16:13:34;;;;;;;7.50;3.20;;;;;;;15.96;59.78;99946.08;106164;1269;59299;-86
2023/10/01 16:16:07;;;;;;;6.10;3.30;;;;;;;16.02;59.78;99945.29;105611;1264;72241;-87
2023/10/01 16:18:41;;;;;;;8.60;3.90;;;;;;;16.08;59.65;99943.33;106191;1270;69220;-89
2023/10/01 16:21:19;;;;;;;9.50;4.20;;;;;;;16.13;59.75;99946.70;107289;1254;245821;-84
2023/10/01 16:23:50;;;;;;;8.90;3.90;;;;;;;16.19;59.84;99948.49;108287;1253;59246;-82
2023/10/01 16:26:21;;;;;;;9.30;4.20;;;;;;;16.22;59.45;99948.59;107932;1254;61009;-85
2023/10/01 16:28:55;;;;;;;12.00;4.50;;;;;;;16.26;59.34;99949.73;106866;1254;71018;-86
2023/10/01 16:31:26;;;;;;;8.40;4.00;;;;;;;16.30;59.24;99951.38;106470;1254;72308;-84
2023/10/01 16:33:59;;;;;;;7.40;4.00;;;;;;;16.35;59.34;99951.65;106252;1260;71282;-85
2023/10/01 16:36:27;;;;;;;;;;;;;;;16.38;59.22;99952.31;106284;1260;60186;-85
2023/10/01 16:38:55;;;;;;;7.30;4.60;;;;;;;16.39;59.16;99947.16;107255;1252;59630;-82
2023/10/01 16:41:24;;;;;;;7.40;4.10;;;;;;;16.41;59.25;99950.48;108543;1251;71796;-85
2023/10/01 16:43:56;;;;;;;11.20;4.80;;;;;;;16.42;59.34;99951.11;109316;1251;68941;-84
2023/10/01 16:46:32;;;;;;;14.30;4.20;;;;;;;16.43;59.46;99952.14;109105;1252;72792;-85
2023/10/01 16:49:01;;;;;;;11.40;4.90;;;;;;;16.45;59.24;99952.43;107621;1257;59327;-85
2023/10/01 16:51:34;;;;;;;10.70;4.40;;;;;;;16.45;59.47;99952.43;107461;1257;60144;-84
2023/10/01 16:54:14;;;;;;;;;;;;;;;16.44;59.40;99949.92;107348;1254;73015;-83
2023/10/01 16:56:48;;;;;;;10.80;4.60;;;;;;;16.42;59.47;99946.77;106658;1260;69342;-83
2023/10/01 16:59:21;;;;;;;12.40;4.90;;;;;;;16.39;59.49;99953.36;106273;1257;71330;-83
2023/10/01 17:01:55;;;;;;;;;;;;;;;16.37;59.61;99947.09;105980;1257;59619;-80
2023/10/01 17:04:31;;;;;;;7.20;3.60;;;;;;;16.32;59.70;99945.87;106033;1254;59700;-80
2023/10/01 17:07:00;;;;;;;7.20;4.30;;;;;;;16.25;59.78;99947.70;106085;1254;70814;-83
2023/10/01 17:09:35;;;;;;;11.70;4.40;;;;;;;16.21;59.84;99946.23;106496;1254;69288;-82
2023/10/01 17:12:04;;;;;;;10.00;4.30;;;;;;;16.19;59.75;99946.89;107614;1253;72839;-82
2023/10/01 17:14:33;;;;;;;8.50;3.80;;;;;;;16.17;59.93;99947.54;106330;1254;59634;-83
2023/10/01 17:17:02;;;;;;;7.80;3.40;;;;;;;16.13;59.98;99947.61;106730;1254;59548;-82
2023/10/01 17:19:35;;;;;;;8.70;3.50;;;;;;;16.08;60.05;99942.92;107701;1256;73447;-85
2023/10/01 17:22:09;;;;;;;8.50;3.50;;;;;;;16.06;60.12;99941.63;106137;1254;68837;-81
2023/10/01 17:24:43;;;;;;;7.00;3.80;;;;;;;16.03;60.12;99942.41;106081;1254;72505;-83
2023/10/01 17:27:18;;;;;;;8.30;3.70;;;;;;;15.99;60.26;99948.23;106284;1257;59788;-83
2023/10/01 17:29:47;;;;;;;8.20;3.60;;;;;;;15.95;60.17;99946.83;105997;1254;60114;-81
2023/10/01 17:32:16;;;;;;;7.40;3.80;;;;;;;15.91;60.08;99949.89;106548;1254;73551;-82
2023/10/01 17:34:46;;;;;;;8.10;4.20;;;;;;;15.90;60.15;99952.41;106672;1254;68637;-80
2023/10/01 17:37:25;;;;;;;9.10;4.20;;;;;;;15.90;60.26;99954.73;106743;1254;71472;-81
2023/10/01 17:40:00;;;;;;;12.50;5.00;;;;;;;15.89;60.12;99958.94;106971;1253;60179;-81
2023/10/01 17:42:28;;;;;;;9.40;4.30;;;;;;;15.88;60.14;99961.09;106608;1258;60399;-81
2023/10/01 17:44:58;;;;;;;10.60;6.10;;;;;;;15.86;59.93;99957.86;107280;1254;74975;-84
2023/10/01 17:47:29;;;;;;;8.10;3.30;;;;;;;15.85;59.86;99959.79;108254;1253;72746;-82
2023/10/01 17:50:03;;;;;;;8.50;4.20;;;;;;;15.84;59.84;99962.34;109201;1253;72362;-83
2023/10/01 17:52:34;;;;;;;6.10;4.00;;;;;;;15.82;59.83;99960.67;108068;1255;58841;-81
2023/10/01 17:55:05;;;;;;;8.80;4.00;;;;;;;15.83;60.02;99960.42;107417;1253;61268;-81
2023/10/01 17:57:33;;;;;;;9.00;3.20;;;;;;;15.84;59.94;99960.92;108112;1253;70873;-83
2023/10/01 18:00:11;;;;;;;6.90;3.80;;;;;;;15.84;59.82;99963.19;107178;1253;71801;-83
2023/10/01 18:02:40;;;;;;;6.20;3.50;;;;;;;15.82;59.74;99966.27;106219;1254;72037;-82
2023/10/01 18:05:18;;;;;;;7.30;4.20;;;;;;;15.79;59.82;99960.91;106166;1257;59627;-79
2023/10/01 18:07:56;;;;;;;6.30;3.50;;;;;;;15.78;59.89;99960.52;105865;1253;59708;-78
2023/10/01 18:10:41;;;;;;;8.10;3.90;;;;;;;15.76;59.83;99961.05;105852;1253;72956;-78
2023/10/01 18:13:15;;;;;;;9.50;4.30;;;;;;;15.72;59.89;99962.90;105789;1254;70510;-78
2023/10/01 18:15:54;;;;;;;11.90;4.30;;;;;;;15.68;59.93;99962.98;105807;1254;71719;-77
2023/10/01 18:18:24;;;;;;;10.70;4.10;;;;;;;15.64;60.09;99963.92;105902;1257;61473;-78
2023/10/01 18:20:55;;;;;;;9.90;3.80;;;;;;;15.61;60.07;99964.80;105846;1253;60402;-78
2023/10/01 18:23:24;;;;;;;9.00;4.50;;;;;;;15.58;60.10;99963.58;105716;1260;73516;-78
2023/10/01 18:25:55;;;;;;;7.00;3.60;;;;;;;15.56;60.15;99966.95;105815;1257;69205;-78
2023/10/01 18:28:26;;;;;;;7.60;3.50;;;;;;;15.55;60.21;99968.29;105847;1254;71516;-77
2023/10/01 18:30:55;;;;;;;8.50;4.20;;;;;;;15.53;60.28;99964.66;105901;1254;60556;-78
2023/10/01 18:33:35;;;;;;;7.30;3.40;;;;;;;15.55;60.41;99966.48;106508;1256;59576;-77
2023/10/01 18:36:18;;;;;;;6.40;3.70;;;;;;;15.55;60.47;99966.62;105732;1253;71990;-76
2023/10/01 18:38:48;;;;;;;9.20;4.40;;;;;;;15.56;60.41;99965.17;105725;1255;68684;-76
2023/10/01 18:41:23;;;;;;;8.30;4.20;;;;;;;15.54;60.37;99969.61;105629;1253;72785;-77
2023/10/01 18:43:51;;;;;;;9.60;4.10;;;;;;;15.52;60.61;99968.69;105427;1254;60326;-76
2023/10/01 18:46:18;;;;;;;10.30;4.10;;;;;;;15.48;60.69;99969.31;106005;1254;61607;-76
2023/10/01 18:48:46;;;;;;;10.20;4.30;;;;;;;15.45;60.63;99970.75;105845;1254;71442;-78
2023/10/01 18:51:14;;;;;;;7.50;3.80;;;;;;;15.45;60.92;99973.15;108800;1253;72116;-77
2023/10/01 18:53:41;;;;;;;13.00;4.00;;;;;;;15.45;60.87;99973.63;108278;1253;71155;-80
2023/10/01 18:56:11;;;;;;;7.00;3.40;;;;;;;15.46;61.06;99972.76;106378;1255;59615;-80
2023/10/01 18:58:39;;;;;;;10.90;4.70;;;;;;;15.45;61.05;99973.62;106173;1253;59653;-80
2023/10/01 19:01:15;;;;;;;9.00;4.00;;;;;;;15.44;61.19;99973.53;105584;1254;72687;-80
2023/10/01 19:03:46;;;;;;;7.20;3.80;;;;;;;15.42;61.31;99971.33;105963;1253;69034;-81
2023/10/01 19:06:18;;;;;;;8.30;3.80;;;;;;;15.40;61.34;99974.48;105900;1256;71468;-80
2023/10/01 19:08:46;;;;;;;11.00;4.10;;;;;;;15.37;61.54;99981.25;106191;1256;59737;-77
2023/10/01 19:11:13;;;;;;;7.30;3.50;;;;;;;15.36;61.57;99983.22;106036;1257;60941;-78
2023/10/01 19:13:40;;;;;;;9.60;4.40;;;;;;;15.36;61.78;99980.01;105811;1258;73411;-77
2023/10/01 19:16:08;;;;;;;9.50;3.90;;;;;;;15.33;61.79;99983.29;105506;1257;69145;-77
2023/10/01 19:18:36;;;;;;;9.00;4.10;;;;;;;15.29;61.94;99984.41;105865;1254;71401;-76
2023/10/01 19:21:03;;;;;;;8.20;4.10;;;;;;;15.24;62.16;99985.34;105479;1256;59624;-76
2023/10/01 19:23:31;;;;;;;9.40;3.80;;;;;;;15.22;62.19;99982.24;105588;1257;59621;-78
2023/10/01 19:26:00;;;;;;;8.50;3.80;;;;;;;15.21;62.45;99980.67;105746;1254;72219;-77
2023/10/01 19:28:28;;;;;;;10.60;3.70;;;;;;;15.19;62.47;99978.05;105810;1257;69205;-77
2023/10/01 19:30:56;;;;;;;15.30;5.20;;;;;;;15.17;62.64;99979.84;105620;1258;72704;-77
2023/10/01 19:33:25;;;;;;;8.70;4.40;;;;;;;15.14;62.74;99981.11;105630;1253;60076;-77
2023/10/01 19:35:52;;;;;;;7.80;3.60;;;;;;;15.11;62.92;99979.52;105581;1254;59577;-77
2023/10/01 19:38:20;;;;;;;5.80;3.80;;;;;;;15.10;62.91;99977.65;105568;1253;73022;-75
2023/10/01 19:40:49;;;;;;;10.30;3.60;;;;;;;15.08;63.08;99977.34;105851;1253;70190;-76
2023/10/01 19:43:25;;;;;;;7.50;3.60;;;;;;;15.05;63.08;99977.81;105608;1254;72689;-76
2023/10/01 19:45:55;;;;;;;9.50;3.90;;;;;;;15.02;63.42;99981.33;106121;1253;60413;-77
2023/10/01 19:48:22;;;;;;;7.50;3.90;;;;;;;14.98;63.64;99974.90;106260;1253;60287;-76
2023/10/01 19:50:51;;;;;;;8.90;3.80;;;;;;;14.97;63.57;99982.38;107951;1252;71598;-76
2023/10/01 19:53:25;;;;;;;6.70;3.80;;;;;;;14.96;63.73;99983.65;107959;1253;69203;-78
2023/10/01 19:56:01;;;;;;;7.80;4.10;;;;;;;14.95;63.95;99983.08;107506;1256;71427;-78
2023/10/01 19:58:32;;;;;;;9.40;3.80;;;;;;;14.94;63.97;99982.17;107232;1255;59765;-78
2023/10/01 20:01:07;;;;;;;10.60;3.70;;;;;;;14.92;64.10;99981.51;107130;1253;59708;-79
2023/10/01 20:03:34;;;;;;;8.60;3.90;;;;;;;14.91;64.19;99981.78;106858;1256;73048;-85
2023/10/01 20:06:05;;;;;;;10.20;4.30;;;;;;;14.90;64.22;99985.80;106299;1259;69080;-85
2023/10/01 20:08:36;;;;;;;8.30;4.30;;;;;;;14.88;64.30;99982.58;108227;1256;72772;-83
2023/10/01 20:11:11;;;;;;;8.30;3.30;;;;;;;14.88;64.36;99987.23;107597;1255;59791;-85
2023/10/01 20:13:39;;;;;;;12.30;3.80;;;;;;;14.88;64.26;99986.61;105899;1256;60148;-85
2023/10/01 20:16:10;;;;;;;10.30;3.90;;;;;;;14.88;64.44;99986.33;106124;1254;73099;-83
2023/10/01 20:18:38;;;;;;;7.30;3.70;;;;;;;14.86;64.59;99986.91;106358;1254;69663;-84
2023/10/01 20:21:06;;;;;;;10.50;4.40;;;;;;;14.80;64.67;99980.89;106785;1254;71998;-83
2023/10/01 20:23:37;;;;;;;9.40;3.80;;;;;;;14.75;64.83;99979.69;108515;1255;58798;-84
2023/10/01 20:26:08;;;;;;;9.10;3.90;;;;;;;14.74;65.02;99976.27;106903;1260;60454;-81
2023/10/01 20:28:36;;;;;;;6.90;3.30;;;;;;;14.73;65.03;99976.84;106520;1260;73977;-81
2023/10/01 20:31:04;;;;;;;8.50;3.90;;;;;;;14.71;65.28;99975.16;105959;1254;68863;-84
2023/10/01 20:33:34;;;;;;;9.20;4.10;;;;;;;14.71;65.26;99977.86;105881;1260;70952;-80
2023/10/01 20:36:02;;;;;;;9.70;3.60;;;;;;;14.72;65.27;99980.98;105796;1262;60423;-83
2023/10/01 20:38:32;;;;;;;7.40;3.50;;;;;;;14.72;65.29;99984.80;105686;1258;60379;-86
2023/10/01 20:41:25;;;;;;;6.20;3.40;;;;;;;14.73;65.48;99983.86;106062;1258;73832;-81
2023/10/01 20:43:55;;;;;;;8.50;3.80;;;;;;;14.72;65.42;99987.35;105816;1254;70307;-82
2023/10/01 20:46:23;;;;;;;9.30;4.60;;;;;;;14.71;65.62;99989.64;105943;1255;71450;-84
2023/10/01 20:48:59;;;;;;;9.20;3.80;;;;;;;14.67;65.74;99992.20;106583;1256;60438;-80
2023/10/01 20:51:33;;;;;;;7.20;3.60;;;;;;;14.68;65.81;99994.42;108845;1254;61371;-80
2023/10/01 20:54:03;;;;;;;7.90;3.90;;;;;;;14.80;65.79;99990.84;108818;1254;74884;-79
2023/10/01 20:56:34;;;;;;;9.60;3.70;;;;;;;14.85;65.77;99989.49;107881;1254;68843;-79
2023/10/01 20:59:12;;;;;;;9.50;3.80;;;;;;;14.86;65.78;99989.35;107980;1256;71415;-82
2023/10/01 21:01:58;;;;;;;8.60;3.80;;;;;;;14.86;65.79;99987.04;107191;1255;60436;-80
2023/10/01 21:04:28;;;;;;;6.60;3.20;;;;;;;14.86;65.93;99990.30;106065;1254;60110;-84
2023/10/01 21:07:03;;;;;;;6.80;3.50;;;;;;;14.84;65.94;99991.92;105830;1256;71895;-85
2023/10/01 21:09:38;;;;;;;11.90;3.70;;;;;;;14.80;65.86;99989.48;106025;1257;70226;-84
2023/10/01 21:12:17;;;;;;;7.40;3.60;;;;;;;14.78;66.09;99986.14;105941;1253;71487;-81
2023/10/01 21:14:53;;;;;;;10.60;3.90;;;;;;;14.79;66.09;99988.33;106414;1253;60413;-84
2023/10/01 21:17:33;;;;;;;8.90;3.80;;;;;;;14.78;66.17;99988.60;108320;1246;60901;-82
2023/10/01 21:20:13;;;;;;;9.70;3.70;;;;;;;14.76;66.15;99984.55;106042;1258;77495;-80
2023/10/01 21:22:42;;;;;;;9.60;3.60;;;;;;;14.74;66.35;99986.42;106017;1254;70157;-81
2023/10/01 21:25:22;;;;;;;9.30;3.90;;;;;;;14.71;66.46;99984.09;106564;1254;72803;-84
2023/10/01 21:27:59;;;;;;;12.80;6.10;;;;;;;14.66;66.69;99983.79;106320;1254;60431;-83
2023/10/01 21:30:27;;;;;;;9.70;4.10;;;;;;;14.61;66.91;99982.20;106163;1254;60636;-79
2023/10/01 21:32:56;;;;;;;7.10;3.60;;;;;;;14.58;67.20;99983.94;106115;1259;72899;-83
2023/10/01 21:35:24;;;;;;;10.50;3.40;;;;;;;14.65;66.93;99987.15;107472;1252;68886;-83
2023/10/01 21:37:52;;;;;;;6.30;2.80;;;;;;;14.73;66.99;99982.55;108084;1254;71328;-84